createdAt,value
2022-09-20T00:00:45.244Z,88
2022-09-20T00:01:52.186Z,88
2022-09-20T00:02:59.289Z,88
2022-09-20T00:04:06.533Z,88
2022-09-20T00:05:13.065Z,88
2022-09-20T00:06:20.661Z,88
2022-09-20T00:07:27.198Z,87
2022-09-20T00:09:42.015Z,87
2022-09-20T00:10:48.051Z,87
2022-09-20T00:11:55.095Z,87
2022-09-20T00:13:02.206Z,87
2022-09-20T00:14:09.341Z,87
2022-09-20T00:15:16.421Z,87
2022-09-20T00:16:23.102Z,87
2022-09-20T00:17:30.247Z,87
2022-09-20T00:18:37.344Z,87
2022-09-20T00:19:44.279Z,87
2022-09-20T00:20:51.426Z,87
2022-09-20T00:21:58.001Z,87
2022-09-20T00:23:05.174Z,87
2022-09-20T00:24:12.278Z,87
2022-09-20T00:25:19.361Z,87
2022-09-20T00:26:26.466Z,87
2022-09-20T00:28:40.209Z,87
2022-09-20T00:29:47.382Z,87
2022-09-20T00:30:54.290Z,86
2022-09-20T00:32:01.460Z,86
2022-09-20T00:33:07.979Z,86
2022-09-20T00:34:15.231Z,86
2022-09-20T00:35:22.250Z,86
2022-09-20T00:36:29.356Z,86
2022-09-20T00:38:42.991Z,86
2022-09-20T00:39:50.204Z,86
2022-09-20T00:40:57.273Z,86
2022-09-20T00:42:04.326Z,86
2022-09-20T00:43:11.445Z,86
2022-09-20T00:44:18.008Z,86
2022-09-20T00:45:25.114Z,86
2022-09-20T00:46:32.764Z,86
2022-09-20T00:47:39.412Z,86
2022-09-20T00:48:46.491Z,86
2022-09-20T00:51:00.158Z,86
2022-09-20T00:52:07.266Z,85
2022-09-20T00:53:14.421Z,85
2022-09-20T00:54:21.494Z,85
2022-09-20T00:55:28.214Z,85
2022-09-20T00:56:35.150Z,85
2022-09-20T00:58:49.410Z,85
2022-09-20T00:59:56.504Z,85
2022-09-20T01:01:03.259Z,85
2022-09-20T01:02:10.238Z,85
2022-09-20T01:03:17.298Z,85
2022-09-20T01:04:24.369Z,85
2022-09-20T01:06:38.116Z,85
2022-09-20T01:07:45.178Z,84
2022-09-20T01:08:52.299Z,84
2022-09-20T01:09:59.365Z,84
2022-09-20T01:11:06.014Z,84
2022-09-20T01:12:13.174Z,84
2022-09-20T01:13:20.202Z,84
2022-09-20T01:14:27.306Z,84
2022-09-20T01:15:34.357Z,84
2022-09-20T01:16:41.228Z,84
2022-09-20T01:17:48.151Z,84
2022-09-20T01:18:55.148Z,84
2022-09-20T01:20:02.339Z,84
2022-09-20T01:21:09.362Z,84
2022-09-20T01:22:16.066Z,84
2022-09-20T01:23:23.123Z,84
2022-09-20T01:24:30.230Z,84
2022-09-20T01:25:37.349Z,84
2022-09-20T01:26:46.880Z,84
2022-09-20T01:27:51.044Z,84
2022-09-20T01:28:58.140Z,84
2022-09-20T01:30:05.180Z,84
2022-09-20T01:32:19.441Z,84
2022-09-20T01:33:26.040Z,83
2022-09-20T01:34:33.698Z,83
2022-09-20T01:35:40.244Z,83
2022-09-20T01:36:47.302Z,83
2022-09-20T01:37:54.420Z,83
2022-09-20T01:39:01.580Z,83
2022-09-20T01:40:09.433Z,83
2022-09-20T01:41:15.192Z,83
2022-09-20T01:42:22.308Z,83
2022-09-20T01:43:29.450Z,83
2022-09-20T01:44:36.055Z,83
2022-09-20T01:45:43.129Z,83
2022-09-20T01:46:50.269Z,83
2022-09-20T01:47:57.360Z,83
2022-09-20T01:49:04.441Z,83
2022-09-20T01:50:12.089Z,83
2022-09-20T01:51:18.148Z,83
2022-09-20T01:52:25.237Z,83
2022-09-20T01:53:33.384Z,83
2022-09-20T01:54:39.594Z,83
2022-09-20T01:55:46.060Z,83
2022-09-20T01:56:53.092Z,83
2022-09-20T01:58:00.223Z,83
2022-09-20T01:59:23.299Z,83
2022-09-20T02:00:14.450Z,83
2022-09-20T02:01:21.171Z,83
2022-09-20T02:02:28.189Z,83
2022-09-20T02:03:35.205Z,83
2022-09-20T02:04:42.424Z,83
2022-09-20T02:05:49.481Z,83
2022-09-20T02:06:56.081Z,83
2022-09-20T02:08:03.672Z,83
2022-09-20T02:09:10.277Z,83
2022-09-20T02:10:17.450Z,84
2022-09-20T02:11:23.960Z,84
2022-09-20T02:13:38.202Z,84
2022-09-20T02:14:45.331Z,84
2022-09-20T02:15:52.359Z,84
2022-09-20T02:16:59.058Z,84
2022-09-20T02:18:06.090Z,84
2022-09-20T02:19:13.169Z,84
2022-09-20T02:20:20.250Z,84
2022-09-20T02:21:27.436Z,84
2022-09-20T02:22:33.963Z,84
2022-09-20T02:23:41.090Z,84
2022-09-20T02:24:48.203Z,84
2022-09-20T02:27:02.371Z,85
2022-09-20T02:28:09.004Z,85
2022-09-20T02:29:16.085Z,85
2022-09-20T02:30:23.170Z,85
2022-09-20T02:31:30.415Z,85
2022-09-20T02:32:37.416Z,85
2022-09-20T02:33:43.994Z,85
2022-09-20T02:37:05.266Z,86
2022-09-20T02:38:12.380Z,86
2022-09-20T02:39:19.011Z,86
2022-09-20T02:40:26.227Z,86
2022-09-20T02:41:33.186Z,86
2022-09-20T02:42:40.386Z,86
2022-09-20T02:43:47.420Z,86
2022-09-20T02:44:53.980Z,86
2022-09-20T02:46:01.143Z,86
2022-09-20T02:47:08.236Z,86
2022-09-20T02:48:15.321Z,87
2022-09-20T02:49:22.420Z,87
2022-09-20T02:50:29.036Z,87
2022-09-20T02:51:36.133Z,87
2022-09-20T02:52:43.218Z,87
2022-09-20T02:54:56.942Z,87
2022-09-20T02:56:04.011Z,87
2022-09-20T02:57:11.174Z,87
2022-09-20T02:58:18.208Z,87
2022-09-20T02:59:25.303Z,87
2022-09-20T03:00:31.909Z,87
2022-09-20T03:01:39.100Z,87
2022-09-20T03:02:46.647Z,87
2022-09-20T03:05:00.390Z,87
2022-09-20T03:06:06.934Z,87
2022-09-20T03:07:13.999Z,87
2022-09-20T03:08:21.264Z,87
2022-09-20T03:09:28.220Z,88
2022-09-20T03:10:35.365Z,88
2022-09-20T03:11:42.960Z,88
2022-09-20T03:12:49.028Z,88
2022-09-20T03:13:56.134Z,88
2022-09-20T03:15:03.236Z,88
2022-09-20T03:16:10.569Z,88
2022-09-20T03:17:17.483Z,88
2022-09-20T03:18:24.054Z,88
2022-09-20T03:19:31.196Z,88
2022-09-20T03:20:38.258Z,88
2022-09-20T03:21:45.561Z,88
2022-09-20T03:22:52.453Z,88
2022-09-20T03:23:59.065Z,88
2022-09-20T03:25:06.181Z,88
2022-09-20T03:26:13.214Z,88
2022-09-20T03:27:20.380Z,88
2022-09-20T03:28:26.977Z,88
2022-09-20T03:29:35.760Z,88
2022-09-20T03:30:45.220Z,88
2022-09-20T03:32:55.465Z,88
2022-09-20T03:34:02.073Z,88
2022-09-20T03:36:16.156Z,88
2022-09-20T03:37:23.234Z,88
2022-09-20T03:39:37.114Z,88
2022-09-20T03:40:46.555Z,88
2022-09-20T03:41:51.251Z,88
2022-09-20T03:42:58.331Z,88
2022-09-20T03:44:06.622Z,88
2022-09-20T03:45:11.989Z,88
2022-09-20T03:46:19.092Z,88
2022-09-20T03:47:26.190Z,88
2022-09-20T03:48:33.331Z,88
2022-09-20T03:49:40.403Z,88
2022-09-20T03:50:46.972Z,88
2022-09-20T03:51:54.053Z,88
2022-09-20T03:53:05.459Z,88
2022-09-20T03:55:15.373Z,88
2022-09-20T03:56:21.975Z,88
2022-09-20T03:57:37.324Z,88
2022-09-20T03:58:36.233Z,88
2022-09-20T03:59:43.291Z,88
2022-09-20T04:00:50.484Z,88
2022-09-20T04:01:57.084Z,88
2022-09-20T04:03:04.180Z,88
2022-09-20T04:04:11.216Z,88
2022-09-20T04:05:18.387Z,88
2022-09-20T04:06:25.949Z,88
2022-09-20T04:07:33.432Z,88
2022-09-20T04:08:40.314Z,88
2022-09-20T04:09:46.213Z,88
2022-09-20T04:10:53.289Z,88
2022-09-20T04:12:02.742Z,88
2022-09-20T04:13:14.788Z,88
2022-09-20T04:14:14.610Z,88
2022-09-20T04:15:21.234Z,88
2022-09-20T04:17:41.647Z,88
2022-09-20T04:18:43.637Z,88
2022-09-20T04:19:51.817Z,88
2022-09-20T04:20:56.835Z,88
2022-09-20T04:22:03.334Z,88
2022-09-20T04:23:10.979Z,88
2022-09-20T04:24:17.032Z,88
2022-09-20T04:25:24.231Z,88
2022-09-20T04:26:47.477Z,88
2022-09-20T04:27:38.373Z,88
2022-09-20T04:28:49.951Z,88
2022-09-20T04:29:52.046Z,88
2022-09-20T04:30:59.647Z,88
2022-09-20T04:32:06.328Z,88
2022-09-20T04:33:13.482Z,88
2022-09-20T04:34:19.970Z,88
2022-09-20T04:35:27.046Z,88
2022-09-20T04:36:34.100Z,88
2022-09-20T04:37:41.289Z,88
2022-09-20T04:38:48.351Z,87
2022-09-20T04:39:54.907Z,88
2022-09-20T04:41:02.035Z,87
2022-09-20T04:43:16.295Z,87
2022-09-20T04:44:23.450Z,87
2022-09-20T04:45:30.046Z,87
2022-09-20T04:46:37.233Z,87
2022-09-20T04:47:44.127Z,87
2022-09-20T04:48:51.325Z,87
2022-09-20T04:49:58.391Z,87
2022-09-20T04:51:04.941Z,87
2022-09-20T04:52:12.128Z,87
2022-09-20T04:53:19.188Z,87
2022-09-20T04:54:26.262Z,87
2022-09-20T04:55:33.359Z,87
2022-09-20T04:56:39.984Z,87
2022-09-20T04:58:54.168Z,87
2022-09-20T05:00:01.320Z,87
2022-09-20T05:01:09.079Z,87
2022-09-20T05:03:22.131Z,87
2022-09-20T05:04:29.189Z,87
2022-09-20T05:05:36.393Z,87
2022-09-20T05:06:43.379Z,87
2022-09-20T05:07:49.970Z,87
2022-09-20T05:08:59.033Z,87
2022-09-20T05:10:04.218Z,87
2022-09-20T05:11:11.343Z,87
2022-09-20T05:12:18.390Z,87
2022-09-20T05:13:24.978Z,87
2022-09-20T05:14:33.031Z,87
2022-09-20T05:15:40.288Z,86
2022-09-20T05:16:46.941Z,86
2022-09-20T05:17:52.855Z,86
2022-09-20T05:18:59.979Z,86
2022-09-20T05:20:07.214Z,86
2022-09-20T05:21:14.180Z,86
2022-09-20T05:23:27.861Z,86
2022-09-20T05:24:35.085Z,86
2022-09-20T05:25:42.220Z,86
2022-09-20T05:26:49.283Z,86
2022-09-20T05:27:56.378Z,86
2022-09-20T05:29:02.876Z,86
2022-09-20T05:31:17.344Z,86
2022-09-20T05:32:24.213Z,86
2022-09-20T05:33:31.346Z,86
2022-09-20T05:34:37.905Z,86
2022-09-20T05:35:45.004Z,86
2022-09-20T05:36:52.131Z,86
2022-09-20T05:37:59.208Z,86
2022-09-20T05:40:12.999Z,86
2022-09-20T05:41:20.065Z,86
2022-09-20T05:42:27.202Z,86
2022-09-20T05:43:34.210Z,86
2022-09-20T05:44:41.347Z,86
2022-09-20T05:46:55.031Z,86
2022-09-20T05:48:02.201Z,86
2022-09-20T05:49:09.236Z,85
2022-09-20T05:50:16.328Z,85
2022-09-20T05:51:22.943Z,85
2022-09-20T05:52:30.040Z,85
2022-09-20T05:53:37.170Z,85
2022-09-20T05:54:44.245Z,85
2022-09-20T05:55:51.385Z,85
2022-09-20T05:56:59.029Z,85
2022-09-20T05:59:12.994Z,85
2022-09-20T06:00:19.256Z,85
2022-09-20T06:01:26.397Z,85
2022-09-20T06:02:32.937Z,85
2022-09-20T06:03:40.058Z,85
2022-09-20T06:04:47.190Z,85
2022-09-20T06:05:54.234Z,85
2022-09-20T06:07:00.839Z,85
2022-09-20T06:08:07.950Z,85
2022-09-20T06:09:15.055Z,85
2022-09-20T06:10:22.220Z,85
2022-09-20T06:11:29.271Z,85
2022-09-20T06:12:35.891Z,85
2022-09-20T06:13:42.917Z,85
2022-09-20T06:14:50.067Z,85
2022-09-20T06:15:57.224Z,85
2022-09-20T06:17:04.257Z,85
2022-09-20T06:18:10.913Z,85
2022-09-20T06:19:18.015Z,85
2022-09-20T06:21:32.184Z,85
2022-09-20T06:22:39.279Z,85
2022-09-20T06:23:45.912Z,85
2022-09-20T06:24:53.021Z,85
2022-09-20T06:26:00.214Z,85
2022-09-20T06:27:07.220Z,85
2022-09-20T06:28:14.284Z,85
2022-09-20T06:29:20.905Z,85
2022-09-20T06:30:28.099Z,85
2022-09-20T06:31:36.481Z,85
2022-09-20T06:32:42.681Z,85
2022-09-20T06:33:49.305Z,85
2022-09-20T06:34:55.867Z,85
2022-09-20T06:36:02.989Z,85
2022-09-20T06:37:10.141Z,85
2022-09-20T06:38:17.766Z,85
2022-09-20T06:39:24.263Z,85
2022-09-20T06:40:31.009Z,85
2022-09-20T06:41:37.985Z,85
2022-09-20T06:42:45.120Z,85
2022-09-20T06:43:52.265Z,85
2022-09-20T06:44:59.416Z,85
2022-09-20T06:46:05.963Z,85
2022-09-20T06:47:13.010Z,85
2022-09-20T06:48:20.460Z,85
2022-09-20T06:51:40.930Z,85
2022-09-20T06:52:48.026Z,85
2022-09-20T06:53:55.261Z,85
2022-09-20T06:55:02.243Z,85
2022-09-20T06:56:09.467Z,85
2022-09-20T06:57:15.926Z,85
2022-09-20T06:58:22.986Z,85
2022-09-20T06:59:30.153Z,85
2022-09-20T07:00:37.776Z,85
2022-09-20T07:02:50.942Z,85
2022-09-20T07:03:58.068Z,85
2022-09-20T07:05:05.331Z,85
2022-09-20T07:06:12.290Z,85
2022-09-20T07:07:18.843Z,85
2022-09-20T07:08:27.012Z,85
2022-09-20T07:09:33.044Z,85
2022-09-20T07:10:40.151Z,85
2022-09-20T07:11:47.284Z,85
2022-09-20T07:12:54.000Z,85
2022-09-20T07:14:00.996Z,85
2022-09-20T07:15:08.111Z,85
2022-09-20T07:16:15.238Z,85
2022-09-20T07:17:22.331Z,85
2022-09-20T07:18:28.840Z,85
2022-09-20T07:19:37.082Z,85
2022-09-20T07:20:43.102Z,85
2022-09-20T07:21:50.241Z,85
2022-09-20T07:22:57.255Z,85
2022-09-20T07:24:03.806Z,85
2022-09-20T07:25:10.963Z,85
2022-09-20T07:26:18.076Z,85
2022-09-20T07:27:29.075Z,85
2022-09-20T07:29:38.916Z,85
2022-09-20T07:30:45.933Z,85
2022-09-20T07:31:53.255Z,85
2022-09-20T07:33:00.260Z,85
2022-09-20T07:34:07.276Z,85
2022-09-20T07:35:13.938Z,85
2022-09-20T07:36:20.973Z,85
2022-09-20T07:37:28.064Z,85
2022-09-20T07:38:35.207Z,85
2022-09-20T07:39:42.310Z,84
2022-09-20T07:40:48.901Z,84
2022-09-20T07:41:56.072Z,84
2022-09-20T07:44:10.264Z,84
2022-09-20T07:45:17.441Z,84
2022-09-20T07:46:23.835Z,84
2022-09-20T07:47:31.118Z,84
2022-09-20T07:48:38.122Z,84
2022-09-20T07:49:45.194Z,84
2022-09-20T07:50:52.306Z,84
2022-09-20T07:51:59.093Z,84
2022-09-20T07:54:14.348Z,84
2022-09-20T07:55:20.232Z,84
2022-09-20T07:57:33.887Z,84
2022-09-20T07:58:40.965Z,84
2022-09-20T07:59:48.129Z,84
2022-09-20T08:00:55.745Z,84
2022-09-20T08:02:02.385Z,84
2022-09-20T08:03:08.894Z,84
2022-09-20T08:04:16.041Z,84
2022-09-20T08:05:24.613Z,84
2022-09-20T08:06:30.229Z,84
2022-09-20T08:07:37.339Z,84
2022-09-20T08:08:43.940Z,84
2022-09-20T08:09:51.085Z,84
2022-09-20T08:10:58.180Z,84
2022-09-20T08:14:19.177Z,84
2022-09-20T08:15:26.034Z,84
2022-09-20T08:16:33.224Z,83
2022-09-20T08:17:40.239Z,83
2022-09-20T08:18:46.858Z,83
2022-09-20T08:19:53.923Z,83
2022-09-20T08:21:01.011Z,83
2022-09-20T08:22:08.164Z,83
2022-09-20T08:23:23.569Z,83
2022-09-20T08:24:21.816Z,83
2022-09-20T08:25:28.955Z,83
2022-09-20T08:26:36.038Z,83
2022-09-20T08:27:43.106Z,83
2022-09-20T08:28:50.241Z,83
2022-09-20T08:29:56.890Z,83
2022-09-20T08:31:04.987Z,83
2022-09-20T08:32:11.082Z,83
2022-09-20T08:33:18.204Z,83
2022-09-20T08:34:25.226Z,83
2022-09-20T08:35:31.848Z,83
2022-09-20T08:36:38.987Z,83
2022-09-20T08:37:46.090Z,83
2022-09-20T08:40:00.499Z,83
2022-09-20T08:41:06.876Z,83
2022-09-20T08:42:14.457Z,83
2022-09-20T08:43:22.399Z,83
2022-09-20T08:44:28.357Z,83
2022-09-20T08:45:35.511Z,83
2022-09-20T08:46:41.930Z,83
2022-09-20T08:47:48.997Z,83
2022-09-20T08:48:56.067Z,83
2022-09-20T08:50:09.009Z,83
2022-09-20T08:51:10.297Z,83
2022-09-20T08:52:16.845Z,83
2022-09-20T08:53:23.979Z,83
2022-09-20T08:54:32.222Z,83
2022-09-20T08:55:38.256Z,83
2022-09-20T08:56:47.010Z,83
2022-09-20T08:57:51.938Z,83
2022-09-20T08:58:59.510Z,84
2022-09-20T09:00:06.117Z,84
2022-09-20T09:01:13.349Z,84
2022-09-20T09:02:20.380Z,84
2022-09-20T09:03:26.923Z,84
2022-09-20T09:04:33.973Z,84
2022-09-20T09:05:41.125Z,84
2022-09-20T09:06:48.231Z,84
2022-09-20T09:07:54.756Z,84
2022-09-20T09:09:01.909Z,84
2022-09-20T09:10:09.030Z,84
2022-09-20T09:11:16.074Z,84
2022-09-20T09:12:23.174Z,84
2022-09-20T09:13:29.846Z,84
2022-09-20T09:14:36.927Z,84
2022-09-20T09:15:44.480Z,84
2022-09-20T09:16:51.174Z,84
2022-09-20T09:17:58.243Z,84
2022-09-20T09:19:04.885Z,84
2022-09-20T09:20:11.891Z,84
2022-09-20T09:21:19.070Z,84
2022-09-20T09:22:26.239Z,84
2022-09-20T09:23:33.771Z,85
2022-09-20T09:24:39.866Z,85
2022-09-20T09:25:46.931Z,85
2022-09-20T09:28:01.221Z,85
2022-09-20T09:29:08.258Z,85
2022-09-20T09:30:14.830Z,85
2022-09-20T09:31:22.016Z,85
2022-09-20T09:32:29.005Z,85
2022-09-20T09:33:36.187Z,85
2022-09-20T09:34:43.293Z,85
2022-09-20T09:35:49.876Z,85
2022-09-20T09:36:56.920Z,85
2022-09-20T09:38:03.987Z,85
2022-09-20T09:39:11.210Z,85
2022-09-20T09:40:18.530Z,85
2022-09-20T09:41:24.801Z,85
2022-09-20T09:42:31.915Z,85
2022-09-20T09:43:39.050Z,85
2022-09-20T09:44:46.259Z,85
2022-09-20T09:45:53.409Z,85
2022-09-20T09:46:59.841Z,85
2022-09-20T09:48:06.971Z,85
2022-09-20T09:49:14.231Z,85
2022-09-20T09:50:21.155Z,85
2022-09-20T09:51:28.300Z,85
2022-09-20T09:52:34.820Z,85
2022-09-20T09:53:41.936Z,85
2022-09-20T09:54:49.091Z,85
2022-09-20T09:55:56.218Z,85
2022-09-20T09:57:03.375Z,85
2022-09-20T09:58:09.878Z,85
2022-09-20T09:59:16.943Z,85
2022-09-20T10:00:24.180Z,85
2022-09-20T10:01:33.354Z,85
2022-09-20T10:02:37.932Z,85
2022-09-20T10:03:44.866Z,85
2022-09-20T10:04:52.512Z,85
2022-09-20T10:05:59.106Z,85
2022-09-20T10:07:06.187Z,85
2022-09-20T10:08:12.762Z,85
2022-09-20T10:09:19.883Z,85
2022-09-20T10:10:26.992Z,85
2022-09-20T10:11:34.028Z,85
2022-09-20T10:12:41.205Z,85
2022-09-20T10:13:47.783Z,85
2022-09-20T10:14:54.900Z,85
2022-09-20T10:16:02.004Z,85
2022-09-20T10:17:09.102Z,85
2022-09-20T10:18:16.178Z,85
2022-09-20T10:19:23.903Z,85
2022-09-20T10:20:29.919Z,85
2022-09-20T10:21:37.036Z,85
2022-09-20T10:22:55.801Z,85
2022-09-20T10:24:57.835Z,85
2022-09-20T10:26:04.948Z,84
2022-09-20T10:27:12.010Z,84
2022-09-20T10:28:19.116Z,84
2022-09-20T10:29:26.365Z,84
2022-09-20T10:30:32.914Z,84
2022-09-20T10:31:39.956Z,84
2022-09-20T10:32:46.948Z,84
2022-09-20T10:33:54.061Z,84
2022-09-20T10:35:01.239Z,84
2022-09-20T10:36:07.806Z,84
2022-09-20T10:37:14.947Z,84
2022-09-20T10:38:22.024Z,84
2022-09-20T10:39:29.111Z,84
2022-09-20T10:40:36.306Z,84
2022-09-20T10:41:42.828Z,84
2022-09-20T10:42:49.944Z,84
2022-09-20T10:44:01.441Z,84
2022-09-20T10:45:04.071Z,84
2022-09-20T10:46:31.416Z,84
2022-09-20T10:47:17.905Z,84
2022-09-20T10:48:24.885Z,84
2022-09-20T10:49:32.044Z,84
2022-09-20T10:50:39.707Z,84
2022-09-20T10:51:46.357Z,84
2022-09-20T10:52:53.132Z,84
2022-09-20T10:53:59.998Z,84
2022-09-20T10:55:07.017Z,83
2022-09-20T10:56:14.172Z,83
2022-09-20T10:57:21.230Z,83
2022-09-20T10:58:27.986Z,83
2022-09-20T10:59:34.943Z,82
2022-09-20T11:00:42.171Z,82
2022-09-20T11:01:49.169Z,82
2022-09-20T11:02:55.768Z,82
2022-09-20T11:05:10.083Z,82
2022-09-20T11:06:17.108Z,82
2022-09-20T11:07:24.166Z,82
2022-09-20T11:08:30.792Z,82
2022-09-20T11:09:37.944Z,82
2022-09-20T11:10:45.032Z,82
2022-09-20T11:11:52.128Z,81
2022-09-20T11:12:59.170Z,81
2022-09-20T11:14:05.756Z,81
2022-09-20T11:15:12.801Z,81
2022-09-20T11:16:20.006Z,81
2022-09-20T11:17:27.115Z,81
2022-09-20T11:19:40.800Z,81
2022-09-20T11:20:47.848Z,82
2022-09-20T11:21:54.980Z,82
2022-09-20T11:23:02.614Z,82
2022-09-20T11:24:09.253Z,82
2022-09-20T11:25:20.391Z,82
2022-09-20T11:26:22.934Z,82
2022-09-20T11:28:37.137Z,81
2022-09-20T11:29:44.141Z,82
2022-09-20T11:30:50.757Z,82
2022-09-20T11:31:58.055Z,82
2022-09-20T11:33:04.959Z,82
2022-09-20T11:34:12.158Z,82
2022-09-20T11:35:19.189Z,82
2022-09-20T11:36:25.770Z,82
2022-09-20T11:37:32.873Z,82
2022-09-20T11:38:40.029Z,81
2022-09-20T11:39:47.152Z,82
2022-09-20T11:40:54.204Z,81
2022-09-20T11:42:00.788Z,81
2022-09-20T11:43:07.881Z,81
2022-09-20T11:44:15.025Z,81
2022-09-20T11:45:26.281Z,81
2022-09-20T11:47:53.976Z,81
2022-09-20T11:48:42.900Z,81
2022-09-20T11:49:50.030Z,81
2022-09-20T11:50:57.291Z,81
2022-09-20T11:53:10.848Z,81
2022-09-20T11:54:17.983Z,81
2022-09-20T11:55:25.028Z,80
2022-09-20T11:56:32.133Z,81
2022-09-20T11:57:38.792Z,80
2022-09-20T11:58:45.845Z,80
2022-09-20T11:59:52.913Z,80
2022-09-20T12:01:01.510Z,80
2022-09-20T12:02:07.226Z,80
2022-09-20T12:03:13.761Z,80
2022-09-20T12:04:32.234Z,80
2022-09-20T12:05:27.973Z,80
2022-09-20T12:06:35.016Z,80
2022-09-20T12:09:55.823Z,80
2022-09-20T12:11:02.931Z,80
2022-09-20T12:12:10.163Z,80
2022-09-20T12:13:17.153Z,80
2022-09-20T12:15:30.854Z,80
2022-09-20T12:16:37.992Z,80
2022-09-20T12:17:45.076Z,80
2022-09-20T12:18:52.118Z,80
2022-09-20T12:19:58.722Z,80
2022-09-20T12:21:05.864Z,80
2022-09-20T12:22:12.971Z,80
2022-09-20T12:23:20.085Z,80
2022-09-20T12:24:27.212Z,80
2022-09-20T12:25:33.741Z,80
2022-09-20T12:26:42.426Z,80
2022-09-20T12:27:47.927Z,80
2022-09-20T12:28:55.079Z,80
2022-09-20T12:30:02.202Z,80
2022-09-20T12:31:08.767Z,80
2022-09-20T12:32:15.957Z,80
2022-09-20T12:33:22.917Z,80
2022-09-20T12:34:30.179Z,80
2022-09-20T12:35:37.205Z,80
2022-09-20T12:36:43.761Z,80
2022-09-20T12:37:50.968Z,80
2022-09-20T12:38:57.971Z,80
2022-09-20T12:40:05.092Z,80
2022-09-20T12:41:12.197Z,80
2022-09-20T12:42:18.759Z,80
2022-09-20T12:43:25.924Z,80
2022-09-20T12:44:33.035Z,80
2022-09-20T12:45:40.117Z,79
2022-09-20T12:46:47.182Z,79
2022-09-20T12:47:53.779Z,79
2022-09-20T12:49:02.014Z,79
2022-09-20T12:51:15.033Z,79
2022-09-20T12:52:22.222Z,79
2022-09-20T12:53:28.799Z,79
2022-09-20T12:54:35.986Z,80
2022-09-20T12:55:42.957Z,80
2022-09-20T12:56:50.080Z,80
2022-09-20T12:57:57.205Z,79
2022-09-20T12:59:03.775Z,79
2022-09-20T13:00:10.984Z,79
2022-09-20T13:01:18.070Z,79
2022-09-20T13:02:25.150Z,79
2022-09-20T13:03:32.227Z,79
2022-09-20T13:04:38.770Z,79
2022-09-20T13:05:45.962Z,80
2022-09-20T13:06:52.956Z,80
2022-09-20T13:08:00.329Z,80
2022-09-20T13:09:06.718Z,80
2022-09-20T13:10:13.802Z,79
2022-09-20T13:12:28.027Z,80
2022-09-20T13:13:35.118Z,79
2022-09-20T13:14:41.710Z,79
2022-09-20T13:15:48.842Z,79
2022-09-20T13:16:56.415Z,79
2022-09-20T13:18:03.030Z,79
2022-09-20T13:19:10.126Z,79
2022-09-20T13:21:23.790Z,80
2022-09-20T13:22:30.943Z,79
2022-09-20T13:23:38.053Z,80
2022-09-20T13:24:45.131Z,80
2022-09-20T13:25:51.703Z,80
2022-09-20T13:26:58.817Z,80
2022-09-20T13:28:05.935Z,80
2022-09-20T13:29:13.001Z,80
2022-09-20T13:30:20.701Z,80
2022-09-20T13:32:33.832Z,80
2022-09-20T13:33:41.023Z,80
2022-09-20T13:34:48.076Z,80
2022-09-20T13:35:55.134Z,79
2022-09-20T13:37:01.800Z,79
2022-09-20T13:38:08.851Z,79
2022-09-20T13:39:16.057Z,79
2022-09-20T13:40:23.094Z,79
2022-09-20T13:41:30.134Z,79
2022-09-20T13:42:36.848Z,80
2022-09-20T13:43:43.848Z,80
2022-09-20T13:45:58.175Z,80
2022-09-20T13:47:04.648Z,80
2022-09-20T13:48:11.744Z,80
2022-09-20T13:49:18.851Z,80
2022-09-20T13:50:25.993Z,80
2022-09-20T13:51:33.091Z,80
2022-09-20T13:52:40.207Z,79
2022-09-20T13:53:46.767Z,79
2022-09-20T13:54:53.854Z,79
2022-09-20T13:56:00.961Z,79
2022-09-20T13:57:08.076Z,79
2022-09-20T13:58:15.126Z,79
2022-09-20T13:59:21.832Z,79
2022-09-20T14:00:28.913Z,79
2022-09-20T14:01:35.968Z,80
2022-09-20T14:02:43.081Z,80
2022-09-20T14:03:49.636Z,80
2022-09-20T14:04:56.804Z,80
2022-09-20T14:06:03.857Z,80
2022-09-20T14:07:11.025Z,79
2022-09-20T14:08:18.104Z,79
2022-09-20T14:09:24.634Z,79
2022-09-20T14:10:31.837Z,79
2022-09-20T14:11:38.932Z,79
2022-09-20T14:13:53.137Z,79
2022-09-20T14:16:06.794Z,79
2022-09-20T14:17:13.964Z,79
2022-09-20T14:18:21.057Z,79
2022-09-20T14:19:28.157Z,79
2022-09-20T14:20:34.710Z,79
2022-09-20T14:21:41.867Z,79
2022-09-20T14:22:48.943Z,79
2022-09-20T14:23:55.950Z,79
2022-09-20T14:25:03.209Z,79
2022-09-20T14:26:09.746Z,79
2022-09-20T14:27:16.832Z,79
2022-09-20T14:28:28.569Z,79
2022-09-20T14:29:31.061Z,79
2022-09-20T14:30:38.169Z,79
2022-09-20T14:31:44.803Z,79
2022-09-20T14:32:51.841Z,79
2022-09-20T14:33:59.448Z,79
2022-09-20T14:35:06.010Z,79
2022-09-20T14:36:13.188Z,79
2022-09-20T14:37:19.781Z,79
2022-09-20T14:38:27.263Z,79
2022-09-20T14:39:33.971Z,79
2022-09-20T14:41:48.119Z,79
2022-09-20T14:42:54.742Z,80
2022-09-20T14:44:01.876Z,80
2022-09-20T14:45:08.928Z,80
2022-09-20T14:46:16.078Z,80
2022-09-20T14:47:22.637Z,80
2022-09-20T14:49:36.936Z,80
2022-09-20T14:50:43.980Z,80
2022-09-20T14:51:51.108Z,80
2022-09-20T14:52:57.690Z,80
2022-09-20T14:55:11.889Z,80
2022-09-20T14:56:18.923Z,80
2022-09-20T14:57:26.028Z,80
2022-09-20T14:58:32.624Z,80
2022-09-20T14:59:39.722Z,80
2022-09-20T15:00:46.961Z,80
2022-09-20T15:01:53.978Z,80
2022-09-20T15:03:01.797Z,80
2022-09-20T15:04:07.753Z,80
2022-09-20T15:05:14.748Z,80
2022-09-20T15:06:21.858Z,80
2022-09-20T15:07:29.019Z,80
2022-09-20T15:09:42.695Z,80
2022-09-20T15:10:49.742Z,80
2022-09-20T15:11:56.920Z,80
2022-09-20T15:13:04.940Z,81
2022-09-20T15:14:11.054Z,81
2022-09-20T15:15:17.646Z,81
2022-09-20T15:16:24.835Z,81
2022-09-20T15:17:31.914Z,81
2022-09-20T15:19:46.220Z,81
2022-09-20T15:20:52.703Z,81
2022-09-20T15:21:59.770Z,81
2022-09-20T15:23:06.998Z,81
2022-09-20T15:24:14.008Z,81
2022-09-20T15:25:21.198Z,81
2022-09-20T15:26:27.709Z,81
2022-09-20T15:27:34.722Z,81
2022-09-20T15:28:41.943Z,81
2022-09-20T15:29:49.020Z,81
2022-09-20T15:30:56.984Z,81
2022-09-20T15:32:02.705Z,81
2022-09-20T15:33:09.814Z,81
2022-09-20T15:34:16.903Z,81
2022-09-20T15:36:32.231Z,81
2022-09-20T15:37:38.809Z,82
2022-09-20T15:38:44.840Z,82
2022-09-20T15:39:51.876Z,82
2022-09-20T15:40:58.992Z,82
2022-09-20T15:42:06.240Z,82
2022-09-20T15:43:13.889Z,82
2022-09-20T15:44:19.804Z,82
2022-09-20T15:45:27.019Z,82
2022-09-20T15:46:34.029Z,82
2022-09-20T15:47:41.103Z,82
2022-09-20T15:48:47.838Z,82
2022-09-20T15:49:54.804Z,82
2022-09-20T15:51:01.934Z,82
2022-09-20T15:52:09.006Z,82
2022-09-20T15:53:15.638Z,82
2022-09-20T15:54:22.719Z,82
2022-09-20T15:55:29.872Z,82
2022-09-20T15:56:36.956Z,82
2022-09-20T15:57:44.018Z,82
2022-09-20T15:58:50.703Z,82
2022-09-20T15:59:57.866Z,82
2022-09-20T16:01:04.893Z,82
2022-09-20T16:02:12.062Z,82
2022-09-20T16:03:19.129Z,82
2022-09-20T16:04:25.664Z,82
2022-09-20T16:05:32.672Z,82
2022-09-20T16:06:39.915Z,82
2022-09-20T16:07:46.983Z,82
2022-09-20T16:08:54.072Z,83
2022-09-20T16:10:00.577Z,83
2022-09-20T16:11:07.810Z,83
2022-09-20T16:12:14.938Z,83
2022-09-20T16:13:21.920Z,83
2022-09-20T16:14:29.045Z,83
2022-09-20T16:15:35.699Z,83
2022-09-20T16:17:49.890Z,83
2022-09-20T16:18:57.005Z,83
2022-09-20T16:20:04.018Z,83
2022-09-20T16:21:10.683Z,83
2022-09-20T16:23:26.666Z,83
2022-09-20T16:24:32.020Z,83
2022-09-20T16:25:39.049Z,83
2022-09-20T16:26:47.210Z,84
2022-09-20T16:27:52.796Z,84
2022-09-20T16:28:59.881Z,84
2022-09-20T16:30:06.993Z,84
2022-09-20T16:31:14.077Z,84
2022-09-20T16:32:20.712Z,84
2022-09-20T16:33:27.856Z,84
2022-09-20T16:34:34.872Z,84
2022-09-20T16:35:42.028Z,84
2022-09-20T16:36:49.192Z,84
2022-09-20T16:37:55.785Z,84
2022-09-20T16:40:10.035Z,84
2022-09-20T16:41:17.635Z,84
2022-09-20T16:42:24.100Z,85
2022-09-20T16:43:30.713Z,85
2022-09-20T16:44:37.824Z,85
2022-09-20T16:45:45.054Z,85
2022-09-20T16:46:52.041Z,85
2022-09-20T16:47:58.670Z,85
2022-09-20T16:49:05.747Z,85
2022-09-20T16:50:12.728Z,85
2022-09-20T16:51:20.002Z,85
2022-09-20T16:52:26.979Z,85
2022-09-20T16:53:33.526Z,85
2022-09-20T16:54:41.093Z,85
2022-09-20T16:55:47.877Z,85
2022-09-20T16:56:54.941Z,85
2022-09-20T16:59:08.637Z,85
2022-09-20T17:00:15.724Z,85
2022-09-20T17:01:22.893Z,85
2022-09-20T17:02:30.174Z,85
2022-09-20T17:03:36.996Z,85
2022-09-20T17:04:43.734Z,85
2022-09-20T17:05:50.706Z,85
2022-09-20T17:06:58.354Z,86